Terminal Aerodrome Forecast
Issued by NWS

Home | Current Version | Previous Version | Graphics & Text | Print | Product List | Glossary On
Versions: 1 2 3 4 5 6 7 8 9 10 11 12 13 14 15 16 17
034
FTUS43 KMPX 200520
TAFAXN
TAF
KAXN 200520Z 2006/2106 18009KT P6SM FEW250 WS020/22040KT
     FM201000 18009KT P6SM SKC
     FM201400 18013G19KT P6SM SKC
     FM201800 17019G27KT P6SM FEW250
     FM210300 17018G29KT P6SM BKN080=

USA.gov is the U.S. government's official web portal to all federal, state and local government web resources and services.